Time;durP1;ratioP1;P1;durP2;ratioP2;P2;SDS_P1;SDS_P2;PMS_P1;PMS_P2;Temp;Humidity;BMP_temperature;BMP_pressure;BME280_temperature;BME280_humidity;BME280_pressure;Samples;Min_cycle;Max_cycle;Signal;HPM_P1;HPM_P2
2022/06/15 00:01:13;;;;;;;7.37;5.00;;;20.80;64.90;;;;;;5084131;28;20571;-86
2022/06/15 00:03:40;;;;;;;4.63;3.93;;;20.80;64.90;;;;;;5085283;28;20458;-85
2022/06/15 00:06:17;;;;;;;5.20;4.40;;;20.80;65.20;;;;;;5087829;28;20450;-83
2022/06/15 00:08:47;;;;;;;5.07;3.90;;;20.90;65.20;;;;;;5086587;28;20508;-83
2022/06/15 00:11:19;;;;;;;7.37;5.00;;;20.90;65.20;;;;;;5067951;28;20466;-85
2022/06/15 00:13:46;;;;;;;5.33;4.17;;;20.80;65.10;;;;;;5084693;28;20481;-84
2022/06/15 00:16:20;;;;;;;6.97;4.90;;;20.90;65.20;;;;;;5085249;28;20459;-83
2022/06/15 00:18:47;;;;;;;5.70;4.30;;;20.90;65.30;;;;;;5083899;28;20535;-83
2022/06/15 00:21:16;;;;;;;6.10;4.10;;;20.90;65.60;;;;;;5068755;28;20466;-86
2022/06/15 00:23:44;;;;;;;6.13;4.30;;;20.90;65.80;;;;;;5085595;28;20462;-84
2022/06/15 00:26:12;;;;;;;7.23;5.43;;;20.90;65.90;;;;;;5085653;28;20458;-85
2022/06/15 00:28:39;;;;;;;4.60;4.10;;;20.80;66.00;;;;;;5049385;28;20463;-84
2022/06/15 00:31:06;;;;;;;5.30;4.00;;;20.80;66.30;;;;;;5082112;28;20482;-84
2022/06/15 00:33:35;;;;;;;5.20;4.80;;;20.80;66.70;;;;;;5066141;28;20485;-84
2022/06/15 00:36:13;;;;;;;8.77;4.03;;;20.80;66.60;;;;;;5066327;28;20524;-84
2022/06/15 00:39:25;;;;;;;11.23;4.33;;;20.80;66.60;;;;;;5067491;28;20482;-86
2022/06/15 00:41:53;;;;;;;4.27;3.87;;;20.70;66.30;;;;;;5084981;28;20482;-84
2022/06/15 00:44:28;;;;;;;4.60;3.90;;;20.70;66.40;;;;;;5068006;28;20636;-86
2022/06/15 00:46:57;;;;;;;4.80;4.27;;;20.70;66.60;;;;;;5087591;28;20455;-85
2022/06/15 00:49:40;;;;;;;4.80;4.40;;;20.80;66.60;;;;;;5092015;28;20824;-81
2022/06/15 00:52:17;;;;;;;5.50;4.70;;;20.90;66.40;;;;;;5095828;28;20458;-85
2022/06/15 00:54:47;;;;;;;5.53;4.90;;;20.70;66.40;;;;;;5087922;28;20919;-83
2022/06/15 00:57:15;;;;;;;6.47;4.20;;;20.50;67.00;;;;;;5064587;28;20482;-84
2022/06/15 00:59:56;;;;;;;5.63;4.50;;;20.30;67.70;;;;;;5067928;28;20446;-85
2022/06/15 01:02:27;;;;;;;8.30;4.40;;;20.40;68.50;;;;;;5084563;28;20524;-85
2022/06/15 01:05:00;;;;;;;4.73;4.23;;;20.40;68.80;;;;;;5085240;28;20455;-84
2022/06/15 01:07:56;;;;;;;5.87;4.43;;;20.40;69.20;;;;;;5065364;28;20948;-83
2022/06/15 01:10:48;;;;;;;4.87;4.47;;;20.40;69.60;;;;;;5062621;28;20512;-83
2022/06/15 01:13:27;;;;;;;5.30;4.50;;;20.50;69.90;;;;;;5067916;28;20446;-83
2022/06/15 01:16:15;;;;;;;5.57;4.80;;;20.50;70.10;;;;;;5085599;28;20566;-84
2022/06/15 01:18:59;;;;;;;5.47;4.40;;;20.50;70.90;;;;;;5066063;28;20490;-86
2022/06/15 01:21:49;;;;;;;5.70;5.00;;;20.50;71.90;;;;;;5082981;28;20470;-84
2022/06/15 01:24:37;;;;;;;7.17;4.83;;;20.40;72.30;;;;;;5085739;28;20451;-84
2022/06/15 01:27:51;;;;;;;6.03;4.67;;;20.50;72.70;;;;;;5070931;28;20451;-85
2022/06/15 01:30:20;;;;;;;5.33;4.93;;;20.40;72.70;;;;;;5089237;28;20453;-84
2022/06/15 01:33:01;;;;;;;5.63;5.07;;;20.40;72.90;;;;;;5065982;28;20494;-85
2022/06/15 01:35:37;;;;;;;5.60;5.20;;;20.30;73.40;;;;;;5062063;28;20460;-82
2022/06/15 01:38:25;;;;;;;7.17;5.87;;;20.30;74.10;;;;;;5083376;28;20481;-84
2022/06/15 01:40:59;;;;;;;6.17;5.63;;;20.30;74.50;;;;;;5065637;28;20478;-84
2022/06/15 01:43:30;;;;;;;10.70;8.20;;;20.40;75.70;;;;;;5081131;28;20834;-84
2022/06/15 01:45:59;;;;;;;7.17;6.13;;;20.30;76.60;;;;;;5081231;28;20466;-83
2022/06/15 01:48:29;;;;;;;8.50;6.57;;;20.40;80.60;;;;;;5061839;28;20489;-84
2022/06/15 01:51:03;;;;;;;8.20;7.37;;;20.30;81.30;;;;;;5082617;28;20473;-83
2022/06/15 01:53:44;;;;;;;8.60;6.83;;;20.10;80.20;;;;;;5081140;28;20448;-83
2022/06/15 01:56:43;;;;;;;8.13;7.33;;;20.10;81.60;;;;;;5065338;28;20469;-82
2022/06/15 01:59:30;;;;;;;8.43;7.63;;;19.90;82.40;;;;;;5059625;28;20474;-84
2022/06/15 02:02:03;;;;;;;8.87;7.90;;;19.80;83.70;;;;;;5082718;28;20481;-83
2022/06/15 02:04:51;;;;;;;7.47;6.87;;;19.90;86.00;;;;;;5063392;28;20454;-81
2022/06/15 02:07:34;;;;;;;7.87;7.23;;;20.00;86.50;;;;;;5080438;28;20490;-85
2022/06/15 02:10:08;;;;;;;7.33;6.60;;;19.90;87.10;;;;;;5064126;28;20466;-85
2022/06/15 02:12:48;;;;;;;7.63;6.80;;;19.70;87.60;;;;;;5064811;28;20474;-85
2022/06/15 02:15:18;;;;;;;7.27;6.53;;;19.60;88.40;;;;;;5082353;28;21024;-84
2022/06/15 02:17:47;;;;;;;7.80;7.00;;;19.50;88.90;;;;;;5079991;28;20447;-84
2022/06/15 02:20:23;;;;;;;7.00;6.50;;;19.60;88.90;;;;;;5065230;28;20450;-84
2022/06/15 02:22:52;;;;;;;11.57;7.70;;;19.60;89.50;;;;;;5084175;28;20481;-85
2022/06/15 02:25:22;;;;;;;8.30;7.47;;;19.60;89.70;;;;;;5068511;28;20442;-85
2022/06/15 02:27:50;;;;;;;8.83;7.90;;;19.50;89.50;;;;;;5082969;28;20462;-84
2022/06/15 02:30:21;;;;;;;8.10;7.30;;;19.30;90.10;;;;;;5086992;28;20811;-84
2022/06/15 02:32:49;;;;;;;7.57;6.97;;;19.20;90.40;;;;;;5085748;28;20490;-84
2022/06/15 02:35:20;;;;;;;7.53;6.80;;;19.30;90.60;;;;;;5083428;28;20473;-84
2022/06/15 02:37:48;;;;;;;7.63;6.93;;;19.40;90.00;;;;;;5082032;28;20463;-85
2022/06/15 02:40:21;;;;;;;7.17;6.57;;;19.20;90.20;;;;;;5066030;28;20442;-83
2022/06/15 02:42:48;;;;;;;8.67;7.40;;;19.20;90.60;;;;;;5082712;28;20486;-83
2022/06/15 02:45:18;;;;;;;7.00;6.40;;;18.90;90.80;;;;;;5066250;28;20462;-82
2022/06/15 02:47:46;;;;;;;11.10;8.20;;;18.90;91.60;;;;;;5067159;28;20450;-79
2022/06/15 02:50:17;;;;;;;8.33;7.17;;;18.80;91.80;;;;;;5090947;28;20461;-80
2022/06/15 02:52:52;;;;;;;10.20;7.53;;;18.80;91.90;;;;;;5090633;28;20513;-82
2022/06/15 02:55:21;;;;;;;7.87;7.07;;;18.80;92.20;;;;;;5090679;28;20915;-85
2022/06/15 02:57:52;;;;;;;7.60;6.90;;;18.80;92.20;;;;;;5088184;28;20458;-84
2022/06/15 03:00:22;;;;;;;7.80;7.10;;;18.70;92.30;;;;;;5066534;28;20451;-84
2022/06/15 03:02:49;;;;;;;9.80;7.60;;;18.70;92.20;;;;;;5066569;28;20463;-83
2022/06/15 03:05:15;;;;;;;8.03;7.23;;;18.50;92.50;;;;;;5084055;28;20463;-82
2022/06/15 03:07:42;;;;;;;8.37;7.57;;;18.40;93.00;;;;;;5083847;28;20450;-84
2022/06/15 03:10:09;;;;;;;8.40;6.77;;;18.50;93.20;;;;;;5082210;28;20455;-83
2022/06/15 03:12:36;;;;;;;8.83;7.93;;;18.40;93.00;;;;;;5082637;28;20478;-83
2022/06/15 03:15:03;;;;;;;9.10;7.40;;;18.40;93.30;;;;;;5088002;28;20577;-84
2022/06/15 03:17:30;;;;;;;12.70;7.77;;;18.40;93.30;;;;;;5070631;28;20457;-83
2022/06/15 03:19:57;;;;;;;9.00;8.17;;;18.40;93.50;;;;;;5065126;28;20482;-82
2022/06/15 03:22:24;;;;;;;8.83;8.03;;;18.40;93.70;;;;;;5083420;28;20463;-83
2022/06/15 03:24:50;;;;;;;8.87;7.37;;;18.30;94.00;;;;;;5082073;28;20561;-81
2022/06/15 03:27:18;;;;;;;10.27;7.50;;;18.30;94.30;;;;;;5065730;28;20454;-83
2022/06/15 03:29:47;;;;;;;8.67;7.30;;;18.40;94.40;;;;;;5082480;28;20477;-82
2022/06/15 03:32:15;;;;;;;8.37;7.57;;;18.50;94.00;;;;;;5080882;28;20489;-83
2022/06/15 03:34:42;;;;;;;8.37;6.93;;;18.30;94.00;;;;;;5067082;28;20566;-83
2022/06/15 03:37:10;;;;;;;8.37;6.90;;;18.30;94.20;;;;;;5069244;28;20481;-84
2022/06/15 03:39:38;;;;;;;8.93;8.03;;;18.40;94.40;;;;;;5085979;28;20892;-83
2022/06/15 03:42:14;;;;;;;9.40;7.73;;;18.40;94.50;;;;;;5085634;28;20500;-81
2022/06/15 03:44:41;;;;;;;7.30;6.70;;;18.40;94.40;;;;;;5073542;28;20438;-82
2022/06/15 03:47:17;;;;;;;7.03;6.33;;;18.30;94.50;;;;;;5069722;28;20458;-83
2022/06/15 03:49:47;;;;;;;8.27;7.23;;;18.20;94.80;;;;;;5087420;28;20457;-83
2022/06/15 03:52:14;;;;;;;7.20;6.53;;;18.20;95.20;;;;;;5103611;28;20473;-84
2022/06/15 03:54:41;;;;;;;10.20;6.90;;;18.10;95.30;;;;;;5105492;28;20453;-84
2022/06/15 03:57:11;;;;;;;6.83;6.30;;;18.20;95.50;;;;;;5083509;28;20481;-85
2022/06/15 03:59:38;;;;;;;7.93;6.67;;;18.40;94.90;;;;;;5068927;28;21111;-84
2022/06/15 04:02:05;;;;;;;8.37;6.90;;;18.40;94.30;;;;;;5104176;28;20477;-83
2022/06/15 04:04:33;;;;;;;8.73;7.73;;;18.50;94.40;;;;;;5083726;28;20462;-83
2022/06/15 04:07:03;;;;;;;7.57;6.87;;;18.30;94.20;;;;;;5103249;28;20666;-84
2022/06/15 04:09:30;;;;;;;13.40;7.10;;;18.30;94.50;;;;;;5102044;28;20446;-83
2022/06/15 04:12:08;;;;;;;7.53;6.83;;;18.30;94.60;;;;;;5083403;28;20770;-85
2022/06/15 04:14:36;;;;;;;13.77;7.70;;;18.30;94.70;;;;;;5078838;28;20450;-85
2022/06/15 04:17:03;;;;;;;12.10;8.50;;;18.20;95.00;;;;;;5092765;28;20447;-84
2022/06/15 04:19:32;;;;;;;12.90;8.30;;;18.20;95.40;;;;;;5071348;28;20485;-85
2022/06/15 04:21:59;;;;;;;15.43;9.07;;;18.30;95.50;;;;;;5071363;28;20474;-84
2022/06/15 04:24:29;;;;;;;10.23;8.20;;;18.20;95.60;;;;;;5086454;28;21402;-82
2022/06/15 04:26:57;;;;;;;14.07;9.70;;;18.10;95.80;;;;;;5066908;28;20522;-83
2022/06/15 04:29:25;;;;;;;10.57;8.70;;;18.30;96.00;;;;;;5086086;28;20458;-84
2022/06/15 04:31:51;;;;;;;12.97;9.30;;;18.20;96.00;;;;;;5065089;28;20478;-83
2022/06/15 04:34:18;;;;;;;10.10;8.47;;;18.30;95.90;;;;;;5084954;28;20525;-84
2022/06/15 04:36:45;;;;;;;12.07;8.63;;;18.40;96.00;;;;;;5084100;28;20474;-83
2022/06/15 04:39:13;;;;;;;10.73;9.17;;;18.40;96.10;;;;;;5064667;28;20493;-85
2022/06/15 04:41:41;;;;;;;11.03;9.93;;;18.40;96.10;;;;;;5082531;28;20463;-84
2022/06/15 04:44:10;;;;;;;11.27;10.17;;;18.30;96.10;;;;;;5063969;28;20466;-85
2022/06/15 04:46:36;;;;;;;9.47;8.50;;;18.30;96.30;;;;;;5080852;28;20446;-84
2022/06/15 04:49:03;;;;;;;11.37;8.80;;;18.30;96.40;;;;;;5066236;28;20462;-85
2022/06/15 04:51:30;;;;;;;10.37;9.10;;;18.20;96.40;;;;;;5081936;28;21067;-85
2022/06/15 04:53:59;;;;;;;11.57;9.33;;;18.20;96.80;;;;;;5079891;28;20463;-86
2022/06/15 04:56:26;;;;;;;12.63;9.10;;;18.20;96.80;;;;;;5063234;28;20477;-84
2022/06/15 04:58:53;;;;;;;10.63;7.60;;;18.10;96.70;;;;;;5061804;28;20462;-84
2022/06/15 05:01:20;;;;;;;8.60;7.00;;;18.20;96.20;;;;;;5064233;28;20477;-83
2022/06/15 05:03:47;;;;;;;12.67;9.13;;;18.20;95.40;;;;;;5059768;28;20480;-84
2022/06/15 05:06:17;;;;;;;13.87;8.20;;;18.30;94.60;;;;;;5063440;28;20442;-83
2022/06/15 05:08:43;;;;;;;14.23;7.90;;;18.30;93.90;;;;;;5086934;28;20462;-84
2022/06/15 05:11:10;;;;;;;9.33;7.20;;;18.40;93.80;;;;;;5093611;28;20478;-85
2022/06/15 05:13:37;;;;;;;7.93;6.87;;;18.40;93.90;;;;;;5077469;28;20463;-81
2022/06/15 05:16:04;;;;;;;9.23;7.03;;;18.40;93.90;;;;;;5084203;28;20486;-84
2022/06/15 05:18:31;;;;;;;9.07;6.30;;;18.40;93.90;;;;;;5080010;28;20482;-84
2022/06/15 05:21:00;;;;;;;6.63;5.93;;;18.50;93.90;;;;;;5062466;28;20458;-84
2022/06/15 05:23:27;;;;;;;8.97;6.10;;;18.50;93.90;;;;;;5080250;28;20447;-86
2022/06/15 05:25:54;;;;;;;7.93;6.03;;;18.50;93.70;;;;;;5080683;28;20443;-81
2022/06/15 05:28:20;;;;;;;6.00;5.50;;;18.60;93.00;;;;;;5061539;28;20453;-85
2022/06/15 05:30:47;;;;;;;6.37;5.77;;;18.70;92.80;;;;;;5060779;28;21084;-82
2022/06/15 05:33:14;;;;;;;6.93;5.93;;;18.70;92.50;;;;;;5080602;28;20450;-83
2022/06/15 05:35:40;;;;;;;5.30;4.80;;;18.50;92.60;;;;;;5079432;28;20454;-85
2022/06/15 05:38:07;;;;;;;9.10;5.33;;;18.40;93.50;;;;;;5079575;28;20458;-84
2022/06/15 05:40:34;;;;;;;6.70;5.27;;;18.40;93.50;;;;;;5062668;28;20478;-84
2022/06/15 05:43:01;;;;;;;5.23;4.73;;;18.40;93.40;;;;;;5063084;28;20533;-81
2022/06/15 05:45:27;;;;;;;5.63;5.00;;;18.60;92.90;;;;;;5074703;28;20454;-84
2022/06/15 05:47:54;;;;;;;7.07;5.70;;;18.70;92.40;;;;;;5059907;28;20443;-82
2022/06/15 05:50:21;;;;;;;8.73;5.80;;;18.60;92.80;;;;;;5080178;28;20463;-84
2022/06/15 05:52:48;;;;;;;7.90;6.07;;;18.50;92.40;;;;;;5082916;28;20561;-83
2022/06/15 05:55:15;;;;;;;6.47;5.80;;;18.50;92.60;;;;;;5058870;28;20455;-83
2022/06/15 05:57:41;;;;;;;7.70;5.77;;;18.60;92.60;;;;;;5078356;28;20450;-82
2022/06/15 06:00:09;;;;;;;7.63;5.87;;;18.60;92.50;;;;;;5061565;28;20478;-85
2022/06/15 06:02:36;;;;;;;10.40;6.50;;;18.70;92.60;;;;;;5078099;28;20580;-83
2022/06/15 06:05:02;;;;;;;8.93;5.60;;;18.80;92.60;;;;;;5083155;28;20513;-84
2022/06/15 06:07:29;;;;;;;8.40;6.00;;;18.70;92.30;;;;;;5081725;28;20466;-83
2022/06/15 06:09:56;;;;;;;7.57;6.10;;;18.90;92.30;;;;;;5065331;28;20556;-82
2022/06/15 06:12:23;;;;;;;6.70;6.00;;;18.80;92.30;;;;;;5083740;28;20535;-85
2022/06/15 06:14:51;;;;;;;7.00;5.97;;;19.10;92.00;;;;;;5066836;28;20458;-85
2022/06/15 06:17:18;;;;;;;6.83;6.17;;;19.10;91.80;;;;;;5066128;28;20447;-84
2022/06/15 06:19:44;;;;;;;6.70;6.10;;;19.20;90.80;;;;;;5030289;28;20470;-83
2022/06/15 06:22:11;;;;;;;7.73;5.50;;;19.10;90.90;;;;;;5079470;28;20465;-85
2022/06/15 06:24:38;;;;;;;7.90;5.77;;;19.10;91.00;;;;;;5066335;28;20451;-82
2022/06/15 06:27:06;;;;;;;8.17;6.20;;;19.20;90.50;;;;;;5082758;28;20482;-83
2022/06/15 06:29:34;;;;;;;9.70;5.73;;;19.20;90.80;;;;;;5080309;28;20462;-83
2022/06/15 06:32:01;;;;;;;7.13;5.90;;;19.40;90.90;;;;;;5065969;28;20466;-82
2022/06/15 06:34:31;;;;;;;7.67;6.10;;;19.40;90.60;;;;;;5066028;28;21075;-84
2022/06/15 06:37:02;;;;;;;5.60;5.20;;;19.50;90.60;;;;;;5081557;28;20457;-83
2022/06/15 06:39:30;;;;;;;7.97;5.90;;;19.50;90.00;;;;;;5063403;28;20551;-84
2022/06/15 06:42:01;;;;;;;9.07;5.10;;;19.70;89.20;;;;;;5081984;28;20471;-83
2022/06/15 06:44:28;;;;;;;6.23;5.50;;;19.70;89.10;;;;;;5081524;28;20454;-81
2022/06/15 06:46:55;;;;;;;7.37;5.43;;;19.90;88.20;;;;;;5082779;28;21199;-85
2022/06/15 06:49:25;;;;;;;8.47;5.17;;;19.90;87.40;;;;;;5064941;28;20974;-82
2022/06/15 06:51:55;;;;;;;7.60;5.33;;;19.90;88.00;;;;;;5065916;28;20510;-83
2022/06/15 06:54:22;;;;;;;6.60;5.70;;;19.90;88.00;;;;;;5082320;28;20565;-84
2022/06/15 06:56:52;;;;;;;5.67;5.00;;;20.20;87.70;;;;;;5082679;28;20454;-83
2022/06/15 06:59:23;;;;;;;8.87;5.53;;;20.30;86.00;;;;;;5087413;28;20824;-85
2022/06/15 07:01:50;;;;;;;7.43;5.60;;;20.30;86.00;;;;;;5071763;28;20500;-83
2022/06/15 07:04:17;;;;;;;7.73;5.70;;;20.10;85.80;;;;;;5071879;28;20493;-83
2022/06/15 07:06:45;;;;;;;16.00;6.70;;;19.80;86.90;;;;;;5082626;28;20967;-81
2022/06/15 07:09:12;;;;;;;11.83;5.83;;;20.10;86.40;;;;;;5084308;28;20576;-85
2022/06/15 07:11:42;;;;;;;9.87;5.90;;;20.20;86.30;;;;;;5067659;28;20530;-85
2022/06/15 07:14:10;;;;;;;9.67;5.70;;;20.10;85.50;;;;;;5085599;28;20451;-83
2022/06/15 07:16:39;;;;;;;6.60;5.40;;;20.10;85.80;;;;;;5083891;28;20489;-84
2022/06/15 07:19:06;;;;;;;8.87;6.10;;;20.30;85.90;;;;;;5084187;28;20545;-86
2022/06/15 07:21:34;;;;;;;7.13;5.80;;;20.40;86.20;;;;;;5066048;28;20501;-84
2022/06/15 07:24:13;;;;;;;5.80;5.13;;;20.60;84.80;;;;;;5083471;28;20529;-82
2022/06/15 07:26:44;;;;;;;5.80;4.87;;;20.60;84.10;;;;;;5081216;28;20455;-84
2022/06/15 07:29:14;;;;;;;12.20;5.83;;;20.90;81.90;;;;;;5062699;28;20453;-82
2022/06/15 07:31:45;;;;;;;9.07;6.30;;;21.30;80.80;;;;;;5084112;28;20470;-84
2022/06/15 07:34:12;;;;;;;6.23;5.63;;;21.50;80.00;;;;;;5081048;28;20454;-85
2022/06/15 07:36:46;;;;;;;5.90;5.10;;;21.60;78.90;;;;;;5081406;28;21071;-82
2022/06/15 07:39:19;;;;;;;5.97;4.70;;;21.80;76.30;;;;;;5082293;28;20482;-83
2022/06/15 07:41:47;;;;;;;6.53;4.83;;;21.80;74.40;;;;;;5082951;28;20470;-84
2022/06/15 07:44:15;;;;;;;9.47;5.33;;;21.70;73.50;;;;;;5067359;28;20447;-82
2022/06/15 07:49:57;;;;;;;8.43;5.00;;;21.90;74.90;;;;;;5081391;28;20462;-85
2022/06/15 07:52:46;;;;;;;5.57;4.40;;;21.90;73.60;;;;;;5068208;28;20454;-82
2022/06/15 07:55:19;;;;;;;10.07;4.53;;;22.10;73.00;;;;;;5084278;28;20458;-85
2022/06/15 07:57:46;;;;;;;11.50;4.67;;;21.90;72.70;;;;;;5067682;28;20466;-84
2022/06/15 08:00:18;;;;;;;5.13;4.23;;;22.20;72.10;;;;;;5067930;28;20577;-83
2022/06/15 08:02:50;;;;;;;6.87;4.60;;;22.20;71.00;;;;;;5083652;28;20481;-85
2022/06/15 08:05:19;;;;;;;6.40;5.40;;;22.20;72.60;;;;;;5083388;28;20457;-84
2022/06/15 08:07:49;;;;;;;6.97;6.30;;;22.30;73.80;;;;;;5066371;28;20927;-84
2022/06/15 08:10:19;;;;;;;8.80;5.87;;;22.70;73.90;;;;;;5065284;28;20508;-86
2022/06/15 08:12:46;;;;;;;6.50;5.90;;;22.80;73.00;;;;;;5083275;28;20513;-83
2022/06/15 08:15:13;;;;;;;6.40;5.77;;;22.90;73.20;;;;;;5082867;28;20461;-84
2022/06/15 08:17:46;;;;;;;10.60;6.10;;;23.10;71.60;;;;;;5065770;28;20465;-85
2022/06/15 08:20:29;;;;;;;9.10;5.67;;;23.20;71.60;;;;;;5066413;28;20519;-84
2022/06/15 08:23:01;;;;;;;6.70;6.00;;;23.30;71.40;;;;;;5083568;28;20466;-84
2022/06/15 08:25:33;;;;;;;9.03;5.73;;;23.30;71.20;;;;;;5081317;28;20803;-83
2022/06/15 08:28:03;;;;;;;11.07;5.17;;;23.20;71.30;;;;;;5080625;28;20454;-83
2022/06/15 08:30:30;;;;;;;7.90;5.07;;;23.40;71.20;;;;;;5063270;28;20472;-84
2022/06/15 08:33:05;;;;;;;6.13;5.13;;;23.40;69.80;;;;;;5063608;28;20533;-84
2022/06/15 08:35:32;;;;;;;5.17;4.20;;;23.50;69.30;;;;;;5065443;28;21042;-83
2022/06/15 08:37:59;;;;;;;8.30;4.63;;;23.80;66.50;;;;;;5063340;28;20822;-86
2022/06/15 08:40:32;;;;;;;7.17;4.60;;;23.80;66.60;;;;;;5065884;28;20478;-83
2022/06/15 08:43:08;;;;;;;5.80;4.80;;;24.50;64.50;;;;;;5061804;28;21078;-86
2022/06/15 08:45:45;;;;;;;4.80;4.30;;;24.90;64.10;;;;;;5063442;28;20474;-84
2022/06/15 08:48:16;;;;;;;5.73;4.67;;;25.10;61.00;;;;;;5078627;28;20438;-83
2022/06/15 08:50:50;;;;;;;7.20;5.03;;;24.90;61.50;;;;;;5082742;28;20464;-84
2022/06/15 08:53:33;;;;;;;7.53;5.20;;;25.30;61.10;;;;;;5051528;28;20469;-83
2022/06/15 08:56:02;;;;;;;6.87;5.20;;;25.00;61.90;;;;;;5082648;28;20459;-84
2022/06/15 08:58:44;;;;;;;8.00;4.93;;;24.90;61.60;;;;;;5082599;28;20455;-85
2022/06/15 09:01:34;;;;;;;7.73;5.53;;;25.30;61.60;;;;;;5084745;28;21290;-85
2022/06/15 09:04:06;;;;;;;7.90;4.90;;;26.10;59.60;;;;;;5076921;28;20451;-86
2022/06/15 09:06:38;;;;;;;8.63;5.23;;;26.90;57.40;;;;;;5081263;28;20462;-85
2022/06/15 09:09:43;;;;;;;11.27;5.80;;;26.30;56.90;;;;;;5081029;28;22491;-86
2022/06/15 09:12:58;;;;;;;5.40;4.33;;;26.50;56.90;;;;;;5063287;28;20470;-85
2022/06/15 09:15:45;;;;;;;5.80;4.17;;;27.70;54.10;;;;;;5061986;28;20458;-86
2022/06/15 09:18:17;;;;;;;7.50;3.90;;;27.80;53.30;;;;;;5080378;28;20443;-86
2022/06/15 09:20:53;;;;;;;5.70;3.50;;;28.00;52.40;;;;;;5064631;28;20854;-82
2022/06/15 09:23:34;;;;;;;10.47;5.03;;;28.50;51.10;;;;;;5063641;28;20503;-87
2022/06/15 09:26:18;;;;;;;3.67;3.17;;;28.80;49.70;;;;;;5047589;28;20451;-85
2022/06/15 09:28:51;;;;;;;4.40;2.90;;;29.10;48.80;;;;;;5062817;28;20455;-84
2022/06/15 09:31:26;;;;;;;12.17;4.37;;;28.80;49.90;;;;;;5066159;28;20474;-85
2022/06/15 09:34:01;;;;;;;4.57;3.33;;;28.80;49.80;;;;;;5061983;28;20451;-85
2022/06/15 09:36:38;;;;;;;6.03;3.20;;;29.70;47.60;;;;;;5059312;28;21138;-84
2022/06/15 09:39:06;;;;;;;5.10;4.47;;;30.00;45.50;;;;;;5067657;28;20455;-85
2022/06/15 09:41:44;;;;;;;4.87;3.13;;;29.80;45.50;;;;;;5062897;28;20957;-84
2022/06/15 09:44:32;;;;;;;9.83;2.77;;;30.60;44.70;;;;;;5061574;28;20454;-87
2022/06/15 09:47:22;;;;;;;6.60;2.90;;;30.40;43.60;;;;;;5068509;28;20454;-84
2022/06/15 09:50:05;;;;;;;4.63;3.63;;;30.80;43.80;;;;;;5086623;28;20864;-85
2022/06/15 09:52:37;;;;;;;3.57;3.27;;;31.20;43.00;;;;;;5066883;28;20474;-86
2022/06/15 09:55:24;;;;;;;4.10;3.03;;;32.20;41.10;;;;;;5068766;28;20943;-85
2022/06/15 09:57:53;;;;;;;4.97;2.53;;;32.00;41.60;;;;;;5086882;28;20462;-86
2022/06/15 10:00:21;;;;;;;4.53;2.50;;;31.80;41.00;;;;;;5065912;28;20489;-86
2022/06/15 10:02:55;;;;;;;3.40;2.30;;;32.60;38.90;;;;;;5083553;28;20470;-85
2022/06/15 10:05:30;;;;;;;6.00;3.07;;;32.60;38.50;;;;;;5066461;28;20468;-83
2022/06/15 10:08:02;;;;;;;3.30;2.30;;;33.10;38.50;;;;;;5063677;28;20445;-87
2022/06/15 10:10:34;;;;;;;2.33;2.03;;;33.40;37.80;;;;;;5086218;28;20442;-86
2022/06/15 10:13:34;;;;;;;3.90;2.43;;;33.90;36.00;;;;;;5065749;28;20470;-85
2022/06/15 10:16:18;;;;;;;4.73;2.47;;;33.50;36.90;;;;;;5083672;28;20494;-84
2022/06/15 10:18:46;;;;;;;6.33;1.97;;;34.00;35.10;;;;;;5066218;28;20585;-84
2022/06/15 10:21:13;;;;;;;3.43;2.33;;;34.30;33.70;;;;;;5083005;28;20485;-84
2022/06/15 10:23:39;;;;;;;2.77;2.03;;;34.40;34.20;;;;;;5084386;28;20441;-86
2022/06/15 10:26:10;;;;;;;2.80;2.17;;;35.10;33.20;;;;;;5084319;28;20867;-86
2022/06/15 10:28:40;;;;;;;3.13;2.40;;;34.50;32.60;;;;;;5082625;28;20469;-83
2022/06/15 10:31:13;;;;;;;3.77;2.10;;;34.20;32.60;;;;;;5084116;28;20477;-87
2022/06/15 10:33:47;;;;;;;4.90;2.10;;;34.40;32.30;;;;;;5083420;28;20462;-86
2022/06/15 10:36:30;;;;;;;2.13;1.83;;;35.00;32.50;;;;;;5068002;28;20464;-81
2022/06/15 10:39:17;;;;;;;4.07;2.50;;;34.50;32.30;;;;;;5082766;28;20465;-85
2022/06/15 10:42:08;;;;;;;5.70;2.43;;;34.00;32.20;;;;;;5085858;28;20551;-85
2022/06/15 10:44:40;;;;;;;4.80;2.63;;;34.50;32.00;;;;;;5085223;28;20583;-85
2022/06/15 10:47:22;;;;;;;2.73;1.93;;;34.90;31.60;;;;;;5081337;28;21919;-85
2022/06/15 10:49:52;;;;;;;3.33;2.50;;;34.60;32.00;;;;;;5082035;28;20450;-86
2022/06/15 10:52:26;;;;;;;5.13;2.70;;;34.20;32.00;;;;;;5082628;28;20994;-86
2022/06/15 11:04:20;;;;;;;2.40;1.97;;;34.60;30.50;;;;;;5094796;28;20494;-83
2022/06/15 11:07:07;;;;;;;4.23;2.20;;;35.10;29.40;;;;;;5080100;28;20454;-86
2022/06/15 11:09:42;;;;;;;2.70;2.20;;;34.60;30.10;;;;;;5095953;28;20448;-83
2022/06/15 11:12:39;;;;;;;2.30;2.10;;;34.50;30.70;;;;;;5086380;28;20767;-86
2022/06/15 11:15:13;;;;;;;5.07;2.07;;;33.80;31.20;;;;;;5083511;28;20466;-85
2022/06/15 11:18:01;;;;;;;3.33;2.00;;;33.70;30.90;;;;;;5062902;28;20838;-84
2022/06/15 11:21:04;;;;;;;4.63;2.07;;;34.90;29.50;;;;;;5082274;28;20481;-85
2022/06/15 11:24:08;;;;;;;3.00;2.40;;;34.60;29.30;;;;;;5080822;28;20471;-85
2022/06/15 11:26:52;;;;;;;3.40;2.60;;;35.10;28.80;;;;;;5080600;28;20454;-86
2022/06/15 11:29:54;;;;;;;3.60;2.00;;;34.30;30.00;;;;;;5059884;28;20832;-85
2022/06/15 11:32:33;;;;;;;2.20;2.00;;;33.40;29.20;;;;;;4981572;28;20946;-86
2022/06/15 11:35:11;;;;;;;2.70;2.47;;;34.00;31.50;;;;;;5055440;28;20454;-83
2022/06/15 11:37:57;;;;;;;2.77;1.73;;;34.40;29.50;;;;;;5079182;28;20457;-83
2022/06/15 11:40:45;;;;;;;2.50;2.00;;;34.80;28.30;;;;;;5081523;28;21271;-86
2022/06/15 11:43:21;;;;;;;2.30;2.10;;;35.00;27.90;;;;;;5086726;28;20904;-85
2022/06/15 11:45:56;;;;;;;2.33;2.13;;;35.00;27.70;;;;;;5087182;28;20455;-86
2022/06/15 11:48:39;;;;;;;2.97;2.13;;;34.50;29.00;;;;;;5072455;28;20445;-84
2022/06/15 11:51:18;;;;;;;2.60;2.37;;;33.60;29.40;;;;;;5068988;28;20505;-87
2022/06/15 11:54:08;;;;;;;2.67;2.43;;;33.70;29.30;;;;;;5086431;28;20460;-86
2022/06/15 11:57:06;;;;;;;3.03;2.20;;;32.70;30.40;;;;;;5086015;28;20534;-87
2022/06/15 11:59:42;;;;;;;2.30;2.10;;;32.40;31.10;;;;;;5085154;28;20431;-85
2022/06/15 12:02:29;;;;;;;3.40;1.90;;;33.20;29.90;;;;;;5084638;28;20486;-86
2022/06/15 12:05:16;;;;;;;5.20;2.50;;;33.30;29.90;;;;;;5070289;28;20460;-87
2022/06/15 12:08:30;;;;;;;3.23;2.53;;;33.90;28.90;;;;;;5086574;28;20443;-87
2022/06/15 12:12:37;;;;;;;2.30;2.10;;;33.80;29.30;;;;;;5077672;28;20490;-84
2022/06/15 12:13:59;;;;;;;3.03;2.00;;;33.50;29.40;;;;;;5086257;28;20505;-85
2022/06/15 12:16:38;;;;;;;4.57;2.33;;;33.50;29.60;;;;;;5086267;28;20447;-85
2022/06/15 12:19:18;;;;;;;2.60;2.27;;;33.50;29.40;;;;;;5085981;28;20503;-87
2022/06/15 12:21:58;;;;;;;4.87;2.17;;;33.10;29.60;;;;;;5086930;28;20482;-85
2022/06/15 12:24:29;;;;;;;4.33;2.40;;;33.00;30.20;;;;;;5069484;28;20442;-84
2022/06/15 12:27:14;;;;;;;2.13;1.80;;;33.10;29.90;;;;;;5182511;22;21312;-83
2022/06/15 12:29:51;;;;;;;4.97;2.37;;;32.90;30.00;;;;;;5100116;28;20458;-85
2022/06/15 12:32:59;;;;;;;2.70;2.50;;;34.10;29.50;;;;;;5101965;28;20570;-86
2022/06/15 12:35:38;;;;;;;2.77;2.30;;;33.90;29.30;;;;;;5087763;28;20537;-85
2022/06/15 12:38:33;;;;;;;4.77;2.60;;;33.30;29.80;;;;;;5085083;28;20521;-85
2022/06/15 12:42:09;;;;;;;3.43;2.60;;;33.40;30.10;;;;;;5101253;28;20489;-86
2022/06/15 12:46:51;;;;;;;4.90;2.30;;;33.30;30.50;;;;;;5191351;22;20502;-84
2022/06/15 12:49:55;;;;;;;2.97;2.40;;;33.50;30.30;;;;;;5065909;28;21095;-84
2022/06/15 12:52:46;;;;;;;3.00;2.43;;;33.90;29.50;;;;;;5083749;28;20481;-88
2022/06/15 12:55:44;;;;;;;3.67;2.60;;;34.00;29.90;;;;;;5084543;28;20443;-84
2022/06/15 12:58:49;;;;;;;2.60;2.37;;;33.40;29.80;;;;;;5086344;28;20451;-85
2022/06/15 13:01:24;;;;;;;2.83;2.33;;;33.00;30.70;;;;;;5070978;28;20486;-86
2022/06/15 13:04:06;;;;;;;4.27;2.60;;;33.50;30.40;;;;;;5086566;28;20439;-84
2022/06/15 13:06:36;;;;;;;4.67;2.80;;;33.60;30.20;;;;;;5092597;28;20446;-84
2022/06/15 13:09:18;;;;;;;3.23;2.70;;;33.40;29.70;;;;;;5095576;28;20456;-84
2022/06/15 13:12:04;;;;;;;2.97;2.43;;;33.00;30.10;;;;;;5095572;28;20520;-84
2022/06/15 13:14:36;;;;;;;2.83;2.63;;;32.40;31.00;;;;;;5096086;28;20561;-85
2022/06/15 13:18:04;;;;;;;2.87;2.53;;;32.80;31.10;;;;;;5075005;28;20443;-86
2022/06/15 13:20:26;;;;;;;2.90;2.30;;;33.00;30.70;;;;;;5158812;22;20492;-85
2022/06/15 13:22:54;;;;;;;3.90;2.90;;;32.70;30.40;;;;;;5137222;22;20483;-86
2022/06/15 13:25:24;;;;;;;2.80;2.53;;;32.60;30.40;;;;;;5194564;22;20523;-85
2022/06/15 13:27:54;;;;;;;3.57;2.50;;;32.50;30.90;;;;;;5052675;28;20966;-84
2022/06/15 13:30:30;;;;;;;5.80;2.43;;;32.50;31.40;;;;;;5051733;28;20866;-87
2022/06/15 13:33:09;;;;;;;4.50;2.47;;;32.60;31.00;;;;;;5055983;28;20478;-86
2022/06/15 13:35:40;;;;;;;3.60;2.50;;;33.00;30.20;;;;;;5039563;28;20452;-84
2022/06/15 13:38:23;;;;;;;4.23;2.50;;;32.70;30.10;;;;;;5044002;28;20451;-85